sensor_id;sensor_type;location;lat;lon;timestamp;temperature;humidity
71039;SHT30;58692;43.212;27.908;2023-02-27T00:01:20;16.15;61.57
71039;SHT30;58692;43.212;27.908;2023-02-27T00:03:46;16.20;61.38
71039;SHT30;58692;43.212;27.908;2023-02-27T00:06:12;16.27;60.97
71039;SHT30;58692;43.212;27.908;2023-02-27T00:08:37;16.25;61.23
71039;SHT30;58692;43.212;27.908;2023-02-27T00:11:03;16.21;61.28
71039;SHT30;58692;43.212;27.908;2023-02-27T00:13:28;16.21;61.12
71039;SHT30;58692;43.212;27.908;2023-02-27T00:15:54;16.21;61.25
71039;SHT30;58692;43.212;27.908;2023-02-27T00:18:21;16.18;61.40
71039;SHT30;58692;43.212;27.908;2023-02-27T00:20:47;16.10;61.52
71039;SHT30;58692;43.212;27.908;2023-02-27T00:23:13;16.14;61.54
71039;SHT30;58692;43.212;27.908;2023-02-27T00:25:40;16.13;61.58
71039;SHT30;58692;43.212;27.908;2023-02-27T00:28:06;16.03;61.87
71039;SHT30;58692;43.212;27.908;2023-02-27T00:30:32;16.05;61.77
71039;SHT30;58692;43.212;27.908;2023-02-27T00:32:57;16.04;61.86
71039;SHT30;58692;43.212;27.908;2023-02-27T00:35:23;16.03;62.04
71039;SHT30;58692;43.212;27.908;2023-02-27T00:37:49;16.05;61.97
71039;SHT30;58692;43.212;27.908;2023-02-27T00:40:15;16.03;62.14
71039;SHT30;58692;43.212;27.908;2023-02-27T00:42:40;16.01;62.24
71039;SHT30;58692;43.212;27.908;2023-02-27T00:45:06;16.00;62.26
71039;SHT30;58692;43.212;27.908;2023-02-27T00:47:33;15.97;62.48
71039;SHT30;58692;43.212;27.908;2023-02-27T00:49:59;16.00;62.40
71039;SHT30;58692;43.212;27.908;2023-02-27T00:52:26;16.05;62.26
71039;SHT30;58692;43.212;27.908;2023-02-27T00:54:52;16.03;62.33
71039;SHT30;58692;43.212;27.908;2023-02-27T00:57:17;16.03;62.42
71039;SHT30;58692;43.212;27.908;2023-02-27T00:59:43;16.00;62.44
71039;SHT30;58692;43.212;27.908;2023-02-27T01:02:09;15.93;62.76
71039;SHT30;58692;43.212;27.908;2023-02-27T01:04:34;15.93;62.66
71039;SHT30;58692;43.212;27.908;2023-02-27T01:07:00;15.94;62.68
71039;SHT30;58692;43.212;27.908;2023-02-27T01:09:26;15.98;62.50
71039;SHT30;58692;43.212;27.908;2023-02-27T01:11:55;16.00;62.46
71039;SHT30;58692;43.212;27.908;2023-02-27T01:14:22;15.97;62.51
71039;SHT30;58692;43.212;27.908;2023-02-27T01:16:48;16.03;62.26
71039;SHT30;58692;43.212;27.908;2023-02-27T01:19:13;16.07;62.22
71039;SHT30;58692;43.212;27.908;2023-02-27T01:21:39;16.01;62.22
71039;SHT30;58692;43.212;27.908;2023-02-27T01:24:06;15.98;62.29
71039;SHT30;58692;43.212;27.908;2023-02-27T01:26:32;15.98;62.35
71039;SHT30;58692;43.212;27.908;2023-02-27T01:28:58;15.98;62.17
71039;SHT30;58692;43.212;27.908;2023-02-27T01:31:23;16.05;61.96
71039;SHT30;58692;43.212;27.908;2023-02-27T01:33:49;16.05;61.86
71039;SHT30;58692;43.212;27.908;2023-02-27T01:36:15;16.05;61.83
71039;SHT30;58692;43.212;27.908;2023-02-27T01:38:40;16.05;61.95
71039;SHT30;58692;43.212;27.908;2023-02-27T01:41:06;16.05;62.00
71039;SHT30;58692;43.212;27.908;2023-02-27T01:43:32;16.00;62.16
71039;SHT30;58692;43.212;27.908;2023-02-27T01:45:58;16.04;62.13
71039;SHT30;58692;43.212;27.908;2023-02-27T01:48:30;16.03;62.25
71039;SHT30;58692;43.212;27.908;2023-02-27T01:51:04;15.96;62.34
71039;SHT30;58692;43.212;27.908;2023-02-27T01:53:34;16.00;62.38
71039;SHT30;58692;43.212;27.908;2023-02-27T01:56:06;15.97;62.53
71039;SHT30;58692;43.212;27.908;2023-02-27T01:58:35;15.93;62.57
71039;SHT30;58692;43.212;27.908;2023-02-27T02:01:01;15.98;62.52
71039;SHT30;58692;43.212;27.908;2023-02-27T02:03:40;15.98;62.63
71039;SHT30;58692;43.212;27.908;2023-02-27T02:06:07;16.00;62.56
71039;SHT30;58692;43.212;27.908;2023-02-27T02:08:37;15.97;62.69
71039;SHT30;58692;43.212;27.908;2023-02-27T02:11:04;15.93;62.84
71039;SHT30;58692;43.212;27.908;2023-02-27T02:13:31;15.91;62.92
71039;SHT30;58692;43.212;27.908;2023-02-27T02:16:51;15.91;62.88
71039;SHT30;58692;43.212;27.908;2023-02-27T02:19:08;15.93;63.04
71039;SHT30;58692;43.212;27.908;2023-02-27T02:27:45;15.86;63.31
71039;SHT30;58692;43.212;27.908;2023-02-27T02:30:39;15.84;63.33
71039;SHT30;58692;43.212;27.908;2023-02-27T02:33:22;15.90;63.30
71039;SHT30;58692;43.212;27.908;2023-02-27T02:44:40;15.82;63.51
71039;SHT30;58692;43.212;27.908;2023-02-27T02:47:24;15.83;63.49
71039;SHT30;58692;43.212;27.908;2023-02-27T02:50:02;15.76;63.71
71039;SHT30;58692;43.212;27.908;2023-02-27T02:57:48;15.82;63.64
71039;SHT30;58692;43.212;27.908;2023-02-27T03:00:20;15.80;63.68
71039;SHT30;58692;43.212;27.908;2023-02-27T03:02:52;15.76;63.83
71039;SHT30;58692;43.212;27.908;2023-02-27T03:05:25;15.76;63.97
71039;SHT30;58692;43.212;27.908;2023-02-27T03:07:56;15.71;64.10
71039;SHT30;58692;43.212;27.908;2023-02-27T03:10:32;15.71;64.08
71039;SHT30;58692;43.212;27.908;2023-02-27T03:13:06;15.70;63.99
71039;SHT30;58692;43.212;27.908;2023-02-27T03:15:39;15.69;64.17
71039;SHT30;58692;43.212;27.908;2023-02-27T03:18:07;15.66;64.10
71039;SHT30;58692;43.212;27.908;2023-02-27T03:20:40;15.60;64.22
71039;SHT30;58692;43.212;27.908;2023-02-27T03:23:11;15.64;64.18
71039;SHT30;58692;43.212;27.908;2023-02-27T03:25:38;15.62;64.31
71039;SHT30;58692;43.212;27.908;2023-02-27T03:28:08;15.57;64.41
71039;SHT30;58692;43.212;27.908;2023-02-27T03:30:37;15.57;64.39
71039;SHT30;58692;43.212;27.908;2023-02-27T03:33:23;15.57;64.29
71039;SHT30;58692;43.212;27.908;2023-02-27T03:35:58;15.54;64.42
71039;SHT30;58692;43.212;27.908;2023-02-27T03:44:01;15.50;64.48
71039;SHT30;58692;43.212;27.908;2023-02-27T03:46:29;15.50;64.29
71039;SHT30;58692;43.212;27.908;2023-02-27T03:48:55;15.52;64.29
71039;SHT30;58692;43.212;27.908;2023-02-27T03:51:22;15.49;64.30
71039;SHT30;58692;43.212;27.908;2023-02-27T03:54:05;15.47;64.23
71039;SHT30;58692;43.212;27.908;2023-02-27T03:56:41;15.50;63.83
71039;SHT30;58692;43.212;27.908;2023-02-27T03:59:08;15.50;63.91
71039;SHT30;58692;43.212;27.908;2023-02-27T04:01:34;15.53;63.62
71039;SHT30;58692;43.212;27.908;2023-02-27T04:04:06;15.52;63.52
71039;SHT30;58692;43.212;27.908;2023-02-27T04:06:35;15.53;63.36
71039;SHT30;58692;43.212;27.908;2023-02-27T04:12:02;15.59;63.18
71039;SHT30;58692;43.212;27.908;2023-02-27T04:20:07;15.59;62.95
71039;SHT30;58692;43.212;27.908;2023-02-27T04:22:46;15.52;63.16
71039;SHT30;58692;43.212;27.908;2023-02-27T04:25:30;15.50;63.09
71039;SHT30;58692;43.212;27.908;2023-02-27T04:28:12;15.53;62.95
71039;SHT30;58692;43.212;27.908;2023-02-27T04:33:27;15.46;63.01
71039;SHT30;58692;43.212;27.908;2023-02-27T04:35:59;15.43;63.10
71039;SHT30;58692;43.212;27.908;2023-02-27T04:38:28;15.44;62.88
71039;SHT30;58692;43.212;27.908;2023-02-27T04:40:57;15.43;62.75
71039;SHT30;58692;43.212;27.908;2023-02-27T04:43:25;15.50;62.57
71039;SHT30;58692;43.212;27.908;2023-02-27T04:45:54;15.43;62.69
71039;SHT30;58692;43.212;27.908;2023-02-27T04:48:25;15.36;62.86
71039;SHT30;58692;43.212;27.908;2023-02-27T04:53:35;15.25;63.13
71039;SHT30;58692;43.212;27.908;2023-02-27T04:56:06;15.29;62.98
71039;SHT30;58692;43.212;27.908;2023-02-27T04:58:36;15.28;63.00
71039;SHT30;58692;43.212;27.908;2023-02-27T05:01:08;15.25;63.00
71039;SHT30;58692;43.212;27.908;2023-02-27T05:03:40;15.28;63.02
71039;SHT30;58692;43.212;27.908;2023-02-27T05:06:07;15.36;62.77
71039;SHT30;58692;43.212;27.908;2023-02-27T05:08:41;15.38;62.90
71039;SHT30;58692;43.212;27.908;2023-02-27T05:11:13;15.35;62.90
71039;SHT30;58692;43.212;27.908;2023-02-27T05:13:44;15.36;62.85
71039;SHT30;58692;43.212;27.908;2023-02-27T05:18:53;15.44;62.84
71039;SHT30;58692;43.212;27.908;2023-02-27T05:21:21;15.42;62.71
71039;SHT30;58692;43.212;27.908;2023-02-27T05:29:44;15.47;62.78
71039;SHT30;58692;43.212;27.908;2023-02-27T05:35:24;15.50;62.81
71039;SHT30;58692;43.212;27.908;2023-02-27T05:37:54;15.57;62.67
71039;SHT30;58692;43.212;27.908;2023-02-27T05:40:31;15.53;62.74
71039;SHT30;58692;43.212;27.908;2023-02-27T05:45:29;15.62;62.73
71039;SHT30;58692;43.212;27.908;2023-02-27T05:48:02;15.66;62.66
71039;SHT30;58692;43.212;27.908;2023-02-27T05:50:33;15.63;62.80
71039;SHT30;58692;43.212;27.908;2023-02-27T05:53:03;15.69;62.74
71039;SHT30;58692;43.212;27.908;2023-02-27T05:55:34;15.69;62.83
71039;SHT30;58692;43.212;27.908;2023-02-27T06:00:33;15.70;62.86
71039;SHT30;58692;43.212;27.908;2023-02-27T06:03:02;15.70;63.04
71039;SHT30;58692;43.212;27.908;2023-02-27T06:05:28;15.82;62.75
71039;SHT30;58692;43.212;27.908;2023-02-27T06:07:53;15.86;62.73
71039;SHT30;58692;43.212;27.908;2023-02-27T06:10:20;15.90;62.69
71039;SHT30;58692;43.212;27.908;2023-02-27T06:12:46;15.91;62.63
71039;SHT30;58692;43.212;27.908;2023-02-27T06:15:15;15.86;62.99
71039;SHT30;58692;43.212;27.908;2023-02-27T06:17:41;15.86;62.98
71039;SHT30;58692;43.212;27.908;2023-02-27T06:20:08;15.87;62.85
71039;SHT30;58692;43.212;27.908;2023-02-27T06:22:34;15.96;62.69
71039;SHT30;58692;43.212;27.908;2023-02-27T06:24:59;16.15;62.13
71039;SHT30;58692;43.212;27.908;2023-02-27T06:27:25;16.27;61.78
71039;SHT30;58692;43.212;27.908;2023-02-27T06:29:52;16.22;61.74
71039;SHT30;58692;43.212;27.908;2023-02-27T06:32:22;16.28;61.70
71039;SHT30;58692;43.212;27.908;2023-02-27T06:34:50;16.20;61.99
71039;SHT30;58692;43.212;27.908;2023-02-27T06:37:17;16.32;61.74
71039;SHT30;58692;43.212;27.908;2023-02-27T06:39:46;16.38;61.42
71039;SHT30;58692;43.212;27.908;2023-02-27T06:42:12;16.58;61.00
71039;SHT30;58692;43.212;27.908;2023-02-27T06:44:38;16.80;60.56
71039;SHT30;58692;43.212;27.908;2023-02-27T06:47:04;16.71;60.78
71039;SHT30;58692;43.212;27.908;2023-02-27T06:49:34;17.31;59.42
71039;SHT30;58692;43.212;27.908;2023-02-27T06:52:00;17.64;58.22
71039;SHT30;58692;43.212;27.908;2023-02-27T06:54:26;17.66;58.35
71039;SHT30;58692;43.212;27.908;2023-02-27T06:56:51;17.61;58.18
71039;SHT30;58692;43.212;27.908;2023-02-27T06:59:17;17.57;58.59
71039;SHT30;58692;43.212;27.908;2023-02-27T07:01:43;17.74;58.42
71039;SHT30;58692;43.212;27.908;2023-02-27T07:04:13;18.52;56.30
71039;SHT30;58692;43.212;27.908;2023-02-27T07:06:39;19.30;54.30
71039;SHT30;58692;43.212;27.908;2023-02-27T07:09:08;19.28;54.41
71039;SHT30;58692;43.212;27.908;2023-02-27T07:11:34;18.42;56.61
71039;SHT30;58692;43.212;27.908;2023-02-27T07:14:00;18.36;57.06
71039;SHT30;58692;43.212;27.908;2023-02-27T07:16:26;18.38;57.24
71039;SHT30;58692;43.212;27.908;2023-02-27T07:18:57;18.59;56.29
71039;SHT30;58692;43.212;27.908;2023-02-27T07:21:26;18.24;57.53
71039;SHT30;58692;43.212;27.908;2023-02-27T07:23:52;18.35;57.38
71039;SHT30;58692;43.212;27.908;2023-02-27T07:26:20;18.45;57.49
71039;SHT30;58692;43.212;27.908;2023-02-27T07:28:46;18.05;58.47
71039;SHT30;58692;43.212;27.908;2023-02-27T07:31:17;18.24;58.58
71039;SHT30;58692;43.212;27.908;2023-02-27T07:33:43;18.19;58.55
71039;SHT30;58692;43.212;27.908;2023-02-27T07:36:08;18.57;57.82
71039;SHT30;58692;43.212;27.908;2023-02-27T07:38:34;18.52;57.89
71039;SHT30;58692;43.212;27.908;2023-02-27T07:41:00;18.19;58.54
71039;SHT30;58692;43.212;27.908;2023-02-27T07:43:25;18.09;59.39
71039;SHT30;58692;43.212;27.908;2023-02-27T07:45:52;18.04;59.58
71039;SHT30;58692;43.212;27.908;2023-02-27T07:48:18;18.05;59.82
71039;SHT30;58692;43.212;27.908;2023-02-27T07:50:44;17.85;60.52
71039;SHT30;58692;43.212;27.908;2023-02-27T07:53:09;17.82;60.70
71039;SHT30;58692;43.212;27.908;2023-02-27T07:55:37;17.66;60.95
71039;SHT30;58692;43.212;27.908;2023-02-27T07:58:03;17.70;61.31
71039;SHT30;58692;43.212;27.908;2023-02-27T08:00:29;17.64;61.16
71039;SHT30;58692;43.212;27.908;2023-02-27T08:03:03;17.64;61.27
71039;SHT30;58692;43.212;27.908;2023-02-27T08:05:29;17.61;61.37
71039;SHT30;58692;43.212;27.908;2023-02-27T08:07:55;17.51;61.48
71039;SHT30;58692;43.212;27.908;2023-02-27T08:10:21;17.46;61.93
71039;SHT30;58692;43.212;27.908;2023-02-27T08:12:46;17.40;62.23
71039;SHT30;58692;43.212;27.908;2023-02-27T08:15:12;17.37;62.71
71039;SHT30;58692;43.212;27.908;2023-02-27T08:17:38;17.46;62.67
71039;SHT30;58692;43.212;27.908;2023-02-27T08:20:04;17.49;62.61
71039;SHT30;58692;43.212;27.908;2023-02-27T08:22:31;17.55;62.57
71039;SHT30;58692;43.212;27.908;2023-02-27T08:24:57;17.61;62.40
71039;SHT30;58692;43.212;27.908;2023-02-27T08:27:23;17.69;62.39
71039;SHT30;58692;43.212;27.908;2023-02-27T08:29:49;17.63;62.49
71039;SHT30;58692;43.212;27.908;2023-02-27T08:32:18;17.74;62.22
71039;SHT30;58692;43.212;27.908;2023-02-27T08:34:43;18.13;61.25
71039;SHT30;58692;43.212;27.908;2023-02-27T08:37:09;17.98;61.64
71039;SHT30;58692;43.212;27.908;2023-02-27T08:39:35;17.85;62.19
71039;SHT30;58692;43.212;27.908;2023-02-27T08:42:00;17.78;62.55
71039;SHT30;58692;43.212;27.908;2023-02-27T08:44:33;17.67;63.14
71039;SHT30;58692;43.212;27.908;2023-02-27T08:47:07;17.41;63.26
71039;SHT30;58692;43.212;27.908;2023-02-27T08:49:36;17.33;61.10
71039;SHT30;58692;43.212;27.908;2023-02-27T08:52:02;17.12;60.98
71039;SHT30;58692;43.212;27.908;2023-02-27T08:54:30;16.83;60.46
71039;SHT30;58692;43.212;27.908;2023-02-27T08:56:56;16.68;60.67
71039;SHT30;58692;43.212;27.908;2023-02-27T08:59:22;16.69;60.42
71039;SHT30;58692;43.212;27.908;2023-02-27T09:01:48;16.68;60.32
71039;SHT30;58692;43.212;27.908;2023-02-27T09:04:14;16.88;59.93
71039;SHT30;58692;43.212;27.908;2023-02-27T09:06:40;17.23;58.53
71039;SHT30;58692;43.212;27.908;2023-02-27T09:09:08;17.60;57.50
71039;SHT30;58692;43.212;27.908;2023-02-27T09:11:34;18.66;55.10
71039;SHT30;58692;43.212;27.908;2023-02-27T09:14:02;20.05;51.42
71039;SHT30;58692;43.212;27.908;2023-02-27T09:16:27;20.44;49.81
71039;SHT30;58692;43.212;27.908;2023-02-27T09:18:54;20.25;49.96
71039;SHT30;58692;43.212;27.908;2023-02-27T09:21:20;20.54;48.98
71039;SHT30;58692;43.212;27.908;2023-02-27T09:23:49;20.66;48.80
71039;SHT30;58692;43.212;27.908;2023-02-27T09:26:15;20.49;48.91
71039;SHT30;58692;43.212;27.908;2023-02-27T09:28:41;20.57;48.41
71039;SHT30;58692;43.212;27.908;2023-02-27T09:31:10;21.41;46.92
71039;SHT30;58692;43.212;27.908;2023-02-27T09:33:38;21.22;47.00
71039;SHT30;58692;43.212;27.908;2023-02-27T09:36:09;21.30;46.94
71039;SHT30;58692;43.212;27.908;2023-02-27T09:38:39;20.85;47.81
71039;SHT30;58692;43.212;27.908;2023-02-27T09:41:06;21.04;47.71
71039;SHT30;58692;43.212;27.908;2023-02-27T09:43:48;21.12;47.76
71039;SHT30;58692;43.212;27.908;2023-02-27T09:46:24;21.34;46.92
71039;SHT30;58692;43.212;27.908;2023-02-27T09:48:55;21.28;46.80
71039;SHT30;58692;43.212;27.908;2023-02-27T09:51:26;20.88;47.91
71039;SHT30;58692;43.212;27.908;2023-02-27T09:53:57;20.66;48.25
71039;SHT30;58692;43.212;27.908;2023-02-27T09:56:30;20.59;48.76
71039;SHT30;58692;43.212;27.908;2023-02-27T10:15:46;21.75;45.86
71039;SHT30;58692;43.212;27.908;2023-02-27T10:18:18;22.44;44.79
71039;SHT30;58692;43.212;27.908;2023-02-27T10:20:52;22.35;44.84
71039;SHT30;58692;43.212;27.908;2023-02-27T10:23:28;22.92;43.92
71039;SHT30;58692;43.212;27.908;2023-02-27T10:25:55;23.04;43.64
71039;SHT30;58692;43.212;27.908;2023-02-27T10:28:25;22.74;43.54
71039;SHT30;58692;43.212;27.908;2023-02-27T10:30:54;22.68;44.94
71039;SHT30;58692;43.212;27.908;2023-02-27T10:33:37;22.13;45.23
71039;SHT30;58692;43.212;27.908;2023-02-27T10:36:27;22.61;44.10
71039;SHT30;58692;43.212;27.908;2023-02-27T10:39:00;22.87;43.65
71039;SHT30;58692;43.212;27.908;2023-02-27T10:41:29;23.07;43.11
71039;SHT30;58692;43.212;27.908;2023-02-27T10:43:57;23.28;42.70
71039;SHT30;58692;43.212;27.908;2023-02-27T10:46:29;23.01;42.85
71039;SHT30;58692;43.212;27.908;2023-02-27T10:48:59;23.25;42.47
71039;SHT30;58692;43.212;27.908;2023-02-27T10:51:32;22.58;43.53
71039;SHT30;58692;43.212;27.908;2023-02-27T10:56:46;22.16;44.47
71039;SHT30;58692;43.212;27.908;2023-02-27T10:59:18;21.89;45.10
71039;SHT30;58692;43.212;27.908;2023-02-27T11:01:48;21.88;44.96
71039;SHT30;58692;43.212;27.908;2023-02-27T11:04:27;22.33;43.85
71039;SHT30;58692;43.212;27.908;2023-02-27T11:07:33;22.24;44.16
71039;SHT30;58692;43.212;27.908;2023-02-27T11:13:03;21.79;44.79
71039;SHT30;58692;43.212;27.908;2023-02-27T11:15:34;21.48;44.83
71039;SHT30;58692;43.212;27.908;2023-02-27T11:20:44;21.18;45.75
71039;SHT30;58692;43.212;27.908;2023-02-27T11:27:16;21.32;45.31
71039;SHT30;58692;43.212;27.908;2023-02-27T11:33:55;21.24;45.89
71039;SHT30;58692;43.212;27.908;2023-02-27T11:36:54;21.44;45.40
71039;SHT30;58692;43.212;27.908;2023-02-27T11:43:24;21.35;44.67
71039;SHT30;58692;43.212;27.908;2023-02-27T11:56:01;21.22;44.95
71039;SHT30;58692;43.212;27.908;2023-02-27T11:58:39;21.59;44.54
71039;SHT30;58692;43.212;27.908;2023-02-27T12:01:21;21.65;43.98
71039;SHT30;58692;43.212;27.908;2023-02-27T12:06:53;21.61;44.39
71039;SHT30;58692;43.212;27.908;2023-02-27T12:12:23;21.51;44.74
71039;SHT30;58692;43.212;27.908;2023-02-27T12:24:20;21.45;45.36
71039;SHT30;58692;43.212;27.908;2023-02-27T12:27:15;21.34;45.50
71039;SHT30;58692;43.212;27.908;2023-02-27T12:30:33;21.62;45.31
71039;SHT30;58692;43.212;27.908;2023-02-27T12:32:45;21.07;46.23
71039;SHT30;58692;43.212;27.908;2023-02-27T12:37:44;21.27;46.05
71039;SHT30;58692;43.212;27.908;2023-02-27T12:40:15;21.45;45.49
71039;SHT30;58692;43.212;27.908;2023-02-27T12:46:09;21.11;45.43
71039;SHT30;58692;43.212;27.908;2023-02-27T12:51:17;20.64;46.21
71039;SHT30;58692;43.212;27.908;2023-02-27T12:54:29;20.29;46.92
71039;SHT30;58692;43.212;27.908;2023-02-27T13:00:16;19.85;47.85
71039;SHT30;58692;43.212;27.908;2023-02-27T13:03:13;19.90;47.77
71039;SHT30;58692;43.212;27.908;2023-02-27T13:05:54;19.86;47.51
71039;SHT30;58692;43.212;27.908;2023-02-27T13:09:08;19.92;47.64
71039;SHT30;58692;43.212;27.908;2023-02-27T13:15:36;20.10;47.17
71039;SHT30;58692;43.212;27.908;2023-02-27T13:25:50;18.94;50.91
71039;SHT30;58692;43.212;27.908;2023-02-27T13:28:24;19.28;50.39
71039;SHT30;58692;43.212;27.908;2023-02-27T13:31:53;19.47;50.01
71039;SHT30;58692;43.212;27.908;2023-02-27T13:34:57;19.44;50.69
71039;SHT30;58692;43.212;27.908;2023-02-27T13:43:58;19.16;50.68
71039;SHT30;58692;43.212;27.908;2023-02-27T13:49:42;19.04;50.81
71039;SHT30;58692;43.212;27.908;2023-02-27T13:57:57;18.63;51.93
71039;SHT30;58692;43.212;27.908;2023-02-27T14:00:29;18.55;51.87
71039;SHT30;58692;43.212;27.908;2023-02-27T14:03:02;18.59;51.91
71039;SHT30;58692;43.212;27.908;2023-02-27T14:05:40;18.57;51.93
71039;SHT30;58692;43.212;27.908;2023-02-27T14:08:13;18.76;51.52
71039;SHT30;58692;43.212;27.908;2023-02-27T14:23:21;18.36;51.99
71039;SHT30;58692;43.212;27.908;2023-02-27T14:25:56;17.82;53.52
71039;SHT30;58692;43.212;27.908;2023-02-27T14:28:35;17.63;53.84
71039;SHT30;58692;43.212;27.908;2023-02-27T14:31:05;17.39;54.92
71039;SHT30;58692;43.212;27.908;2023-02-27T14:34:03;17.30;55.29
71039;SHT30;58692;43.212;27.908;2023-02-27T14:40:29;17.26;55.67
71039;SHT30;58692;43.212;27.908;2023-02-27T14:43:05;17.06;55.95
71039;SHT30;58692;43.212;27.908;2023-02-27T14:45:38;17.37;55.45
71039;SHT30;58692;43.212;27.908;2023-02-27T14:48:09;17.31;55.35
71039;SHT30;58692;43.212;27.908;2023-02-27T14:50:41;17.33;55.62
71039;SHT30;58692;43.212;27.908;2023-02-27T14:53:25;16.98;57.00
71039;SHT30;58692;43.212;27.908;2023-02-27T14:56:01;16.98;57.11
71039;SHT30;58692;43.212;27.908;2023-02-27T14:58:27;17.22;56.60
71039;SHT30;58692;43.212;27.908;2023-02-27T15:01:11;17.37;56.05
71039;SHT30;58692;43.212;27.908;2023-02-27T15:06:34;17.55;55.81
71039;SHT30;58692;43.212;27.908;2023-02-27T15:09:01;17.61;56.17
71039;SHT30;58692;43.212;27.908;2023-02-27T15:11:31;17.54;58.45
71039;SHT30;58692;43.212;27.908;2023-02-27T15:14:05;17.36;66.34
71039;SHT30;58692;43.212;27.908;2023-02-27T15:16:35;17.50;70.01
71039;SHT30;58692;43.212;27.908;2023-02-27T15:19:18;17.39;67.59
71039;SHT30;58692;43.212;27.908;2023-02-27T15:21:54;16.98;67.56
71039;SHT30;58692;43.212;27.908;2023-02-27T15:27:00;16.48;65.44
71039;SHT30;58692;43.212;27.908;2023-02-27T15:29:33;16.22;65.29
71039;SHT30;58692;43.212;27.908;2023-02-27T15:32:00;16.05;67.67
71039;SHT30;58692;43.212;27.908;2023-02-27T15:34:26;16.01;66.18
71039;SHT30;58692;43.212;27.908;2023-02-27T15:36:56;15.83;66.57
71039;SHT30;58692;43.212;27.908;2023-02-27T15:39:23;15.62;66.66
71039;SHT30;58692;43.212;27.908;2023-02-27T15:41:55;15.50;67.15
71039;SHT30;58692;43.212;27.908;2023-02-27T15:44:26;15.38;68.36
71039;SHT30;58692;43.212;27.908;2023-02-27T15:50:20;14.99;69.24
71039;SHT30;58692;43.212;27.908;2023-02-27T15:55:46;14.85;68.59
71039;SHT30;58692;43.212;27.908;2023-02-27T15:58:22;15.05;70.53
71039;SHT30;58692;43.212;27.908;2023-02-27T16:00:57;14.99;69.43
71039;SHT30;58692;43.212;27.908;2023-02-27T16:06:17;14.78;69.07
71039;SHT30;58692;43.212;27.908;2023-02-27T16:08:51;14.78;70.26
71039;SHT30;58692;43.212;27.908;2023-02-27T16:11:20;14.61;68.17
71039;SHT30;58692;43.212;27.908;2023-02-27T16:13:45;14.37;69.79
71039;SHT30;58692;43.212;27.908;2023-02-27T16:22:19;14.34;68.33
71039;SHT30;58692;43.212;27.908;2023-02-27T16:25:16;14.44;67.99
71039;SHT30;58692;43.212;27.908;2023-02-27T16:27:50;14.63;67.84
71039;SHT30;58692;43.212;27.908;2023-02-27T16:30:21;14.51;68.10
71039;SHT30;58692;43.212;27.908;2023-02-27T16:32:49;14.31;66.83
71039;SHT30;58692;43.212;27.908;2023-02-27T16:35:22;14.34;67.37
71039;SHT30;58692;43.212;27.908;2023-02-27T16:37:49;14.16;68.33
71039;SHT30;58692;43.212;27.908;2023-02-27T16:40:18;14.14;68.78
71039;SHT30;58692;43.212;27.908;2023-02-27T16:42:45;13.95;68.93
71039;SHT30;58692;43.212;27.908;2023-02-27T16:47:41;13.95;69.35
71039;SHT30;58692;43.212;27.908;2023-02-27T16:53:03;13.87;69.32
71039;SHT30;58692;43.212;27.908;2023-02-27T16:55:29;13.93;68.58
71039;SHT30;58692;43.212;27.908;2023-02-27T16:57:55;13.72;70.13
71039;SHT30;58692;43.212;27.908;2023-02-27T17:00:21;13.69;70.00
71039;SHT30;58692;43.212;27.908;2023-02-27T17:02:47;13.80;70.41
71039;SHT30;58692;43.212;27.908;2023-02-27T17:05:13;13.89;70.12
71039;SHT30;58692;43.212;27.908;2023-02-27T17:07:40;13.97;70.95
71039;SHT30;58692;43.212;27.908;2023-02-27T17:10:13;14.12;70.40
71039;SHT30;58692;43.212;27.908;2023-02-27T17:12:39;13.97;69.22
71039;SHT30;58692;43.212;27.908;2023-02-27T17:15:05;14.03;69.68
71039;SHT30;58692;43.212;27.908;2023-02-27T17:17:31;13.95;70.51
71039;SHT30;58692;43.212;27.908;2023-02-27T17:19:56;13.95;70.67
71039;SHT30;58692;43.212;27.908;2023-02-27T17:22:22;13.91;69.61
71039;SHT30;58692;43.212;27.908;2023-02-27T17:24:47;13.96;71.00
71039;SHT30;58692;43.212;27.908;2023-02-27T17:27:13;13.76;69.20
71039;SHT30;58692;43.212;27.908;2023-02-27T17:29:38;13.69;70.20
71039;SHT30;58692;43.212;27.908;2023-02-27T17:32:04;13.70;69.43
71039;SHT30;58692;43.212;27.908;2023-02-27T17:34:30;13.80;70.55
71039;SHT30;58692;43.212;27.908;2023-02-27T17:36:56;13.45;70.91
71039;SHT30;58692;43.212;27.908;2023-02-27T17:39:21;13.31;71.58
71039;SHT30;58692;43.212;27.908;2023-02-27T17:41:47;13.26;72.07
71039;SHT30;58692;43.212;27.908;2023-02-27T17:44:13;13.21;72.07
71039;SHT30;58692;43.212;27.908;2023-02-27T17:46:39;12.79;71.96
71039;SHT30;58692;43.212;27.908;2023-02-27T17:49:06;12.63;74.42
71039;SHT30;58692;43.212;27.908;2023-02-27T17:51:32;12.50;73.50
71039;SHT30;58692;43.212;27.908;2023-02-27T17:54:00;12.68;74.47
71039;SHT30;58692;43.212;27.908;2023-02-27T17:56:26;12.56;73.37
71039;SHT30;58692;43.212;27.908;2023-02-27T17:58:52;12.46;73.30
71039;SHT30;58692;43.212;27.908;2023-02-27T18:01:20;12.59;73.56
71039;SHT30;58692;43.212;27.908;2023-02-27T18:03:47;12.73;73.72
71039;SHT30;58692;43.212;27.908;2023-02-27T18:06:15;12.63;73.29
71039;SHT30;58692;43.212;27.908;2023-02-27T18:08:40;12.61;73.66
71039;SHT30;58692;43.212;27.908;2023-02-27T18:11:09;12.61;73.13
71039;SHT30;58692;43.212;27.908;2023-02-27T18:13:35;12.50;73.89
71039;SHT30;58692;43.212;27.908;2023-02-27T18:16:01;12.50;74.22
71039;SHT30;58692;43.212;27.908;2023-02-27T18:18:26;12.20;73.28
71039;SHT30;58692;43.212;27.908;2023-02-27T18:21:01;12.05;74.96
71039;SHT30;58692;43.212;27.908;2023-02-27T18:23:27;11.90;74.34
71039;SHT30;58692;43.212;27.908;2023-02-27T18:25:54;11.88;75.11
71039;SHT30;58692;43.212;27.908;2023-02-27T18:28:20;12.06;74.63
71039;SHT30;58692;43.212;27.908;2023-02-27T18:30:45;12.02;73.71
71039;SHT30;58692;43.212;27.908;2023-02-27T18:33:11;11.93;75.83
71039;SHT30;58692;43.212;27.908;2023-02-27T18:35:36;11.99;74.04
71039;SHT30;58692;43.212;27.908;2023-02-27T18:38:02;11.93;73.83
71039;SHT30;58692;43.212;27.908;2023-02-27T18:40:28;11.58;74.36
71039;SHT30;58692;43.212;27.908;2023-02-27T18:42:54;11.23;75.50
71039;SHT30;58692;43.212;27.908;2023-02-27T18:45:20;11.32;75.26
71039;SHT30;58692;43.212;27.908;2023-02-27T18:47:46;11.44;75.50
71039;SHT30;58692;43.212;27.908;2023-02-27T18:50:12;11.26;74.01
71039;SHT30;58692;43.212;27.908;2023-02-27T18:52:38;11.01;74.78
71039;SHT30;58692;43.212;27.908;2023-02-27T18:55:04;10.77;75.41